sensor_id;sensor_type;location;lat;lon;timestamp;pressure;altitude;pressure_sealevel;temperature;humidity
57234;BME280;43090;52.604;13.318;2023-02-07T03:31:42;103685.66;;;-7.80;100.00
57234;BME280;43090;52.604;13.318;2023-02-07T03:34:56;103683.69;;;-7.68;100.00
57234;BME280;43090;52.604;13.318;2023-02-07T03:37:58;103682.00;;;-7.84;100.00
57234;BME280;43090;52.604;13.318;2023-02-07T03:40:50;103674.94;;;-7.87;100.00
57234;BME280;43090;52.604;13.318;2023-02-07T03:43:33;103679.63;;;-7.79;100.00
57234;BME280;43090;52.604;13.318;2023-02-07T03:46:12;103675.41;;;-7.77;100.00
57234;BME280;43090;52.604;13.318;2023-02-07T03:48:57;103677.25;;;-7.91;100.00
57234;BME280;43090;52.604;13.318;2023-02-07T03:51:32;103682.47;;;-7.91;100.00
57234;BME280;43090;52.604;13.318;2023-02-07T03:54:33;103692.31;;;-7.85;100.00
57234;BME280;43090;52.604;13.318;2023-02-07T03:57:02;103687.84;;;-7.88;100.00
57234;BME280;43090;52.604;13.318;2023-02-07T03:59:33;103682.16;;;-7.64;100.00
57234;BME280;43090;52.604;13.318;2023-02-07T04:02:03;103683.84;;;-7.65;100.00
57234;BME280;43090;52.604;13.318;2023-02-07T04:04:40;103688.56;;;-7.74;100.00
57234;BME280;43090;52.604;13.318;2023-02-07T04:07:50;103683.56;;;-7.53;100.00
57234;BME280;43090;52.604;13.318;2023-02-07T04:10:44;103682.41;;;-7.76;100.00
57234;BME280;43090;52.604;13.318;2023-02-07T04:13:30;103691.66;;;-7.81;100.00
57234;BME280;43090;52.604;13.318;2023-02-07T04:16:24;103694.66;;;-7.90;100.00
57234;BME280;43090;52.604;13.318;2023-02-07T04:19:05;103689.81;;;-7.84;100.00
57234;BME280;43090;52.604;13.318;2023-02-07T04:21:35;103681.00;;;-7.86;100.00
57234;BME280;43090;52.604;13.318;2023-02-07T04:24:08;103682.88;;;-7.83;100.00
57234;BME280;43090;52.604;13.318;2023-02-07T04:26:48;103685.72;;;-7.95;100.00
57234;BME280;43090;52.604;13.318;2023-02-07T04:29:18;103676.97;;;-7.97;100.00
57234;BME280;43090;52.604;13.318;2023-02-07T04:31:47;103685.50;;;-7.49;100.00
57234;BME280;43090;52.604;13.318;2023-02-07T04:34:14;103678.38;;;-7.53;100.00
57234;BME280;43090;52.604;13.318;2023-02-07T04:36:41;103681.03;;;-7.35;100.00
57234;BME280;43090;52.604;13.318;2023-02-07T04:39:08;103668.63;;;-7.57;100.00
57234;BME280;43090;52.604;13.318;2023-02-07T04:41:37;103666.38;;;-8.00;100.00
57234;BME280;43090;52.604;13.318;2023-02-07T04:44:04;103673.63;;;-8.11;100.00
57234;BME280;43090;52.604;13.318;2023-02-07T04:46:35;103674.03;;;-7.87;100.00
57234;BME280;43090;52.604;13.318;2023-02-07T04:49:02;103679.13;;;-7.89;100.00
57234;BME280;43090;52.604;13.318;2023-02-07T04:51:30;103690.28;;;-8.08;100.00
57234;BME280;43090;52.604;13.318;2023-02-07T04:54:00;103697.00;;;-8.11;100.00
57234;BME280;43090;52.604;13.318;2023-02-07T04:56:32;103705.88;;;-8.08;100.00
57234;BME280;43090;52.604;13.318;2023-02-07T04:59:06;103709.44;;;-8.06;100.00
57234;BME280;43090;52.604;13.318;2023-02-07T05:01:38;103703.38;;;-8.06;100.00
57234;BME280;43090;52.604;13.318;2023-02-07T05:04:05;103693.94;;;-8.04;100.00
57234;BME280;43090;52.604;13.318;2023-02-07T05:06:58;103698.81;;;-8.10;100.00
57234;BME280;43090;52.604;13.318;2023-02-07T05:09:24;103691.44;;;-8.02;100.00
57234;BME280;43090;52.604;13.318;2023-02-07T05:11:51;103688.41;;;-8.10;100.00
57234;BME280;43090;52.604;13.318;2023-02-07T05:14:22;103689.72;;;-8.02;100.00
57234;BME280;43090;52.604;13.318;2023-02-07T05:16:49;103688.97;;;-7.99;100.00
57234;BME280;43090;52.604;13.318;2023-02-07T05:19:18;103689.13;;;-7.96;100.00
57234;BME280;43090;52.604;13.318;2023-02-07T05:21:47;103691.47;;;-7.84;100.00
57234;BME280;43090;52.604;13.318;2023-02-07T05:24:17;103687.41;;;-8.12;100.00
57234;BME280;43090;52.604;13.318;2023-02-07T05:26:44;103687.19;;;-8.00;100.00
57234;BME280;43090;52.604;13.318;2023-02-07T05:29:11;103688.41;;;-7.94;100.00
57234;BME280;43090;52.604;13.318;2023-02-07T05:31:37;103686.22;;;-7.86;100.00
57234;BME280;43090;52.604;13.318;2023-02-07T05:34:23;103695.94;;;-8.15;100.00
57234;BME280;43090;52.604;13.318;2023-02-07T05:36:52;103698.41;;;-8.01;100.00
57234;BME280;43090;52.604;13.318;2023-02-07T05:39:25;103703.28;;;-7.91;100.00
57234;BME280;43090;52.604;13.318;2023-02-07T05:41:51;103703.13;;;-7.78;100.00
57234;BME280;43090;52.604;13.318;2023-02-07T05:44:18;103710.28;;;-8.07;100.00
57234;BME280;43090;52.604;13.318;2023-02-07T05:46:54;103717.41;;;-8.19;100.00
57234;BME280;43090;52.604;13.318;2023-02-07T05:49:32;103714.19;;;-7.98;100.00
57234;BME280;43090;52.604;13.318;2023-02-07T05:52:04;103710.75;;;-7.81;100.00
57234;BME280;43090;52.604;13.318;2023-02-07T05:54:34;103709.41;;;-7.91;100.00
57234;BME280;43090;52.604;13.318;2023-02-07T05:57:14;103715.94;;;-8.14;100.00
57234;BME280;43090;52.604;13.318;2023-02-07T05:59:47;103717.03;;;-7.77;100.00
57234;BME280;43090;52.604;13.318;2023-02-07T06:02:24;103721.34;;;-8.11;100.00
57234;BME280;43090;52.604;13.318;2023-02-07T06:04:57;103722.13;;;-8.12;100.00
57234;BME280;43090;52.604;13.318;2023-02-07T06:11:29;103730.00;;;-8.10;100.00
57234;BME280;43090;52.604;13.318;2023-02-07T06:17:05;103726.19;;;-8.17;100.00
57234;BME280;43090;52.604;13.318;2023-02-07T06:23:00;103727.06;;;-8.33;100.00
57234;BME280;43090;52.604;13.318;2023-02-07T06:28:18;103734.38;;;-8.26;100.00
57234;BME280;43090;52.604;13.318;2023-02-07T06:30:47;103734.06;;;-8.32;100.00
57234;BME280;43090;52.604;13.318;2023-02-07T06:33:24;103742.44;;;-8.21;100.00
57234;BME280;43090;52.604;13.318;2023-02-07T06:35:51;103735.88;;;-8.14;100.00
57234;BME280;43090;52.604;13.318;2023-02-07T06:38:21;103743.41;;;-8.19;100.00
57234;BME280;43090;52.604;13.318;2023-02-07T06:40:51;103744.69;;;-8.27;100.00
57234;BME280;43090;52.604;13.318;2023-02-07T06:46:20;103749.00;;;-8.28;100.00
57234;BME280;43090;52.604;13.318;2023-02-07T06:49:00;103744.66;;;-8.44;100.00
57234;BME280;43090;52.604;13.318;2023-02-07T06:51:40;103730.22;;;-8.39;100.00
57234;BME280;43090;52.604;13.318;2023-02-07T06:55:14;103730.16;;;-8.24;100.00
57234;BME280;43090;52.604;13.318;2023-02-07T06:57:47;103725.53;;;-7.96;100.00
57234;BME280;43090;52.604;13.318;2023-02-07T07:00:17;103732.13;;;-8.03;100.00
57234;BME280;43090;52.604;13.318;2023-02-07T07:02:46;103729.47;;;-7.88;100.00
57234;BME280;43090;52.604;13.318;2023-02-07T07:05:13;103730.50;;;-8.17;100.00
57234;BME280;43090;52.604;13.318;2023-02-07T07:07:43;103731.53;;;-8.14;100.00
57234;BME280;43090;52.604;13.318;2023-02-07T07:10:21;103725.38;;;-7.99;100.00
57234;BME280;43090;52.604;13.318;2023-02-07T07:12:48;103727.34;;;-7.95;100.00
57234;BME280;43090;52.604;13.318;2023-02-07T07:15:29;103722.81;;;-7.83;100.00
57234;BME280;43090;52.604;13.318;2023-02-07T07:17:55;103729.78;;;-7.82;100.00
57234;BME280;43090;52.604;13.318;2023-02-07T07:20:25;103714.66;;;-7.73;100.00
57234;BME280;43090;52.604;13.318;2023-02-07T07:23:09;103713.69;;;-7.91;100.00
57234;BME280;43090;52.604;13.318;2023-02-07T07:25:56;103723.75;;;-7.81;100.00
57234;BME280;43090;52.604;13.318;2023-02-07T07:28:25;103714.81;;;-7.53;100.00
57234;BME280;43090;52.604;13.318;2023-02-07T07:30:52;103716.78;;;-7.65;100.00
57234;BME280;43090;52.604;13.318;2023-02-07T07:33:22;103717.44;;;-7.70;100.00
57234;BME280;43090;52.604;13.318;2023-02-07T07:39:29;103726.19;;;-7.51;100.00
57234;BME280;43090;52.604;13.318;2023-02-07T07:41:55;103734.03;;;-7.16;100.00
57234;BME280;43090;52.604;13.318;2023-02-07T07:44:28;103730.28;;;-7.22;100.00
57234;BME280;43090;52.604;13.318;2023-02-07T07:50:58;103723.94;;;-6.92;100.00
57234;BME280;43090;52.604;13.318;2023-02-07T07:53:24;103728.28;;;-7.09;100.00
57234;BME280;43090;52.604;13.318;2023-02-07T07:55:52;103724.75;;;-6.75;100.00
57234;BME280;43090;52.604;13.318;2023-02-07T07:58:22;103724.75;;;-6.75;100.00
57234;BME280;43090;52.604;13.318;2023-02-07T08:00:58;103739.56;;;-6.56;100.00
57234;BME280;43090;52.604;13.318;2023-02-07T09:08:47;103710.88;;;-3.36;100.00
57234;BME280;43090;52.604;13.318;2023-02-07T09:11:20;103723.19;;;-2.82;100.00
57234;BME280;43090;52.604;13.318;2023-02-07T09:13:52;103727.94;;;-2.70;100.00
57234;BME280;43090;52.604;13.318;2023-02-07T09:16:34;103732.81;;;-2.55;99.75
57234;BME280;43090;52.604;13.318;2023-02-07T09:19:01;103736.56;;;-2.47;99.75
57234;BME280;43090;52.604;13.318;2023-02-07T09:21:28;103744.91;;;-2.31;99.55
57234;BME280;43090;52.604;13.318;2023-02-07T09:23:56;103732.78;;;-2.26;98.41
57234;BME280;43090;52.604;13.318;2023-02-07T09:26:24;103735.78;;;-2.15;98.63
57234;BME280;43090;52.604;13.318;2023-02-07T09:29:01;103730.91;;;-2.02;98.72
57234;BME280;43090;52.604;13.318;2023-02-07T09:31:40;103735.34;;;-2.01;97.71
57234;BME280;43090;52.604;13.318;2023-02-07T09:37:59;103743.06;;;-1.75;96.71
57234;BME280;43090;52.604;13.318;2023-02-07T09:40:35;103739.25;;;-1.86;94.93
57234;BME280;43090;52.604;13.318;2023-02-07T09:43:26;103758.94;;;-1.72;93.88
57234;BME280;43090;52.604;13.318;2023-02-07T09:46:04;103759.09;;;-1.65;95.53
57234;BME280;43090;52.604;13.318;2023-02-07T10:08:54;103756.84;;;-1.20;92.19
57234;BME280;43090;52.604;13.318;2023-02-07T10:24:35;103785.31;;;-0.70;87.71
57234;BME280;43090;52.604;13.318;2023-02-07T10:34:44;103769.81;;;-0.57;85.85
57234;BME280;43090;52.604;13.318;2023-02-07T12:27:35;103710.88;;;0.63;67.85
57234;BME280;43090;52.604;13.318;2023-02-07T13:03:22;103680.69;;;1.57;63.06
57234;BME280;43090;52.604;13.318;2023-02-07T15:20:55;103609.97;;;0.73;74.39
57234;BME280;43090;52.604;13.318;2023-02-07T15:27:00;103610.06;;;0.27;78.71
57234;BME280;43090;52.604;13.318;2023-02-07T15:40:27;103616.09;;;-0.24;82.54
57234;BME280;43090;52.604;13.318;2023-02-07T16:04:32;103601.69;;;-1.21;89.43
57234;BME280;43090;52.604;13.318;2023-02-07T17:28:18;103619.19;;;-2.53;100.00
57234;BME280;43090;52.604;13.318;2023-02-07T17:49:23;103620.00;;;-2.55;100.00
57234;BME280;43090;52.604;13.318;2023-02-07T18:35:57;103650.06;;;-3.00;100.00
57234;BME280;43090;52.604;13.318;2023-02-07T18:38:40;103648.16;;;-2.77;100.00
57234;BME280;43090;52.604;13.318;2023-02-07T18:41:18;103644.00;;;-2.99;100.00
57234;BME280;43090;52.604;13.318;2023-02-07T18:44:00;103645.13;;;-3.18;100.00
57234;BME280;43090;52.604;13.318;2023-02-07T18:47:03;103646.13;;;-3.14;100.00
57234;BME280;43090;52.604;13.318;2023-02-07T18:53:11;103651.97;;;-3.22;100.00
57234;BME280;43090;52.604;13.318;2023-02-07T18:55:52;103653.09;;;-3.41;100.00
57234;BME280;43090;52.604;13.318;2023-02-07T18:58:21;103657.06;;;-3.52;100.00
57234;BME280;43090;52.604;13.318;2023-02-07T19:00:51;103660.00;;;-3.43;100.00
57234;BME280;43090;52.604;13.318;2023-02-07T19:03:20;103670.03;;;-3.57;100.00
57234;BME280;43090;52.604;13.318;2023-02-07T19:05:46;103664.56;;;-3.63;100.00
57234;BME280;43090;52.604;13.318;2023-02-07T19:08:31;103661.06;;;-3.63;100.00
57234;BME280;43090;52.604;13.318;2023-02-07T19:11:19;103666.41;;;-3.60;100.00
57234;BME280;43090;52.604;13.318;2023-02-07T19:13:59;103672.91;;;-3.49;100.00
57234;BME280;43090;52.604;13.318;2023-02-07T19:16:29;103674.22;;;-3.62;100.00
57234;BME280;43090;52.604;13.318;2023-02-07T19:19:28;103670.09;;;-3.79;100.00
57234;BME280;43090;52.604;13.318;2023-02-07T19:21:55;103670.75;;;-3.85;100.00
57234;BME280;43090;52.604;13.318;2023-02-07T19:24:41;103674.38;;;-3.81;100.00
57234;BME280;43090;52.604;13.318;2023-02-07T19:27:59;103675.78;;;-3.91;100.00
57234;BME280;43090;52.604;13.318;2023-02-07T19:34:12;103679.56;;;-3.83;100.00
57234;BME280;43090;52.604;13.318;2023-02-07T19:37:04;103690.53;;;-3.93;100.00
57234;BME280;43090;52.604;13.318;2023-02-07T19:47:08;103702.41;;;-3.79;100.00
57234;BME280;43090;52.604;13.318;2023-02-07T19:50:07;103708.84;;;-3.93;100.00
57234;BME280;43090;52.604;13.318;2023-02-07T19:59:31;103707.19;;;-3.91;100.00
57234;BME280;43090;52.604;13.318;2023-02-07T20:02:33;103708.78;;;-4.19;100.00
57234;BME280;43090;52.604;13.318;2023-02-07T20:08:46;103717.22;;;-4.26;100.00
57234;BME280;43090;52.604;13.318;2023-02-07T20:11:56;103719.13;;;-4.22;100.00
57234;BME280;43090;52.604;13.318;2023-02-07T20:15:04;103724.00;;;-4.31;100.00
57234;BME280;43090;52.604;13.318;2023-02-07T20:18:10;103718.19;;;-4.24;100.00
57234;BME280;43090;52.604;13.318;2023-02-07T20:21:01;103716.34;;;-4.27;100.00
57234;BME280;43090;52.604;13.318;2023-02-07T20:23:38;103718.50;;;-4.39;100.00
57234;BME280;43090;52.604;13.318;2023-02-07T20:33:34;103723.63;;;-4.18;100.00
57234;BME280;43090;52.604;13.318;2023-02-07T20:36:34;103709.00;;;-4.36;100.00
57234;BME280;43090;52.604;13.318;2023-02-07T20:39:26;103711.25;;;-4.22;100.00
57234;BME280;43090;52.604;13.318;2023-02-07T20:49:43;103711.06;;;-4.28;100.00
57234;BME280;43090;52.604;13.318;2023-02-07T20:52:13;103711.22;;;-4.46;100.00
57234;BME280;43090;52.604;13.318;2023-02-07T20:54:52;103711.81;;;-4.54;100.00
57234;BME280;43090;52.604;13.318;2023-02-07T20:58:09;103718.75;;;-4.54;100.00
57234;BME280;43090;52.604;13.318;2023-02-07T21:01:14;103717.72;;;-4.58;100.00
57234;BME280;43090;52.604;13.318;2023-02-07T21:04:28;103722.50;;;-4.47;100.00
57234;BME280;43090;52.604;13.318;2023-02-07T21:07:47;103717.56;;;-4.62;100.00
57234;BME280;43090;52.604;13.318;2023-02-07T21:13:48;103729.75;;;-4.63;100.00
57234;BME280;43090;52.604;13.318;2023-02-07T21:27:46;103727.22;;;-4.82;100.00
57234;BME280;43090;52.604;13.318;2023-02-07T21:44:49;103727.16;;;-5.05;100.00
57234;BME280;43090;52.604;13.318;2023-02-07T21:54:27;103718.56;;;-5.03;100.00
57234;BME280;43090;52.604;13.318;2023-02-07T21:57:20;103710.53;;;-5.07;100.00
57234;BME280;43090;52.604;13.318;2023-02-07T22:03:52;103714.72;;;-5.11;100.00
57234;BME280;43090;52.604;13.318;2023-02-07T22:06:39;103713.88;;;-5.10;100.00
57234;BME280;43090;52.604;13.318;2023-02-07T22:09:32;103712.31;;;-5.06;100.00
57234;BME280;43090;52.604;13.318;2023-02-07T22:11:59;103713.22;;;-5.25;100.00
57234;BME280;43090;52.604;13.318;2023-02-07T22:18:02;103716.13;;;-4.98;100.00
57234;BME280;43090;52.604;13.318;2023-02-07T22:20:31;103722.16;;;-5.20;100.00
57234;BME280;43090;52.604;13.318;2023-02-07T22:22:58;103730.22;;;-5.15;100.00
57234;BME280;43090;52.604;13.318;2023-02-07T22:25:24;103721.28;;;-5.21;100.00
57234;BME280;43090;52.604;13.318;2023-02-07T22:27:51;103722.47;;;-5.33;100.00
57234;BME280;43090;52.604;13.318;2023-02-07T22:30:18;103725.69;;;-5.20;100.00
57234;BME280;43090;52.604;13.318;2023-02-07T22:32:44;103730.75;;;-5.23;100.00
57234;BME280;43090;52.604;13.318;2023-02-07T22:35:11;103726.69;;;-5.16;100.00
57234;BME280;43090;52.604;13.318;2023-02-07T22:37:37;103724.16;;;-4.93;100.00
57234;BME280;43090;52.604;13.318;2023-02-07T22:40:04;103726.56;;;-5.19;100.00
57234;BME280;43090;52.604;13.318;2023-02-07T22:42:31;103725.34;;;-5.27;100.00
57234;BME280;43090;52.604;13.318;2023-02-07T22:44:59;103719.75;;;-5.37;100.00
57234;BME280;43090;52.604;13.318;2023-02-07T22:47:25;103716.72;;;-5.46;100.00
57234;BME280;43090;52.604;13.318;2023-02-07T22:49:52;103724.75;;;-5.41;100.00
57234;BME280;43090;52.604;13.318;2023-02-07T22:52:19;103719.53;;;-5.41;100.00
57234;BME280;43090;52.604;13.318;2023-02-07T22:54:45;103716.72;;;-5.46;100.00
57234;BME280;43090;52.604;13.318;2023-02-07T22:57:12;103720.97;;;-5.48;100.00
57234;BME280;43090;52.604;13.318;2023-02-07T22:59:41;103714.53;;;-5.56;100.00
57234;BME280;43090;52.604;13.318;2023-02-07T23:02:07;103719.22;;;-5.49;100.00
57234;BME280;43090;52.604;13.318;2023-02-07T23:04:34;103732.19;;;-5.50;100.00
57234;BME280;43090;52.604;13.318;2023-02-07T23:07:11;103723.34;;;-5.54;100.00
57234;BME280;43090;52.604;13.318;2023-02-07T23:09:37;103728.00;;;-5.47;100.00
57234;BME280;43090;52.604;13.318;2023-02-07T23:12:05;103721.19;;;-5.43;100.00
57234;BME280;43090;52.604;13.318;2023-02-07T23:14:35;103717.38;;;-5.52;100.00
57234;BME280;43090;52.604;13.318;2023-02-07T23:17:01;103722.59;;;-5.52;100.00
57234;BME280;43090;52.604;13.318;2023-02-07T23:19:28;103725.09;;;-5.53;100.00
57234;BME280;43090;52.604;13.318;2023-02-07T23:21:58;103718.88;;;-5.57;100.00
57234;BME280;43090;52.604;13.318;2023-02-07T23:24:24;103716.44;;;-5.52;100.00
57234;BME280;43090;52.604;13.318;2023-02-07T23:26:51;103724.84;;;-5.59;100.00
57234;BME280;43090;52.604;13.318;2023-02-07T23:29:17;103723.53;;;-5.69;100.00
57234;BME280;43090;52.604;13.318;2023-02-07T23:31:44;103722.66;;;-5.70;100.00
57234;BME280;43090;52.604;13.318;2023-02-07T23:34:11;103722.28;;;-5.38;100.00
57234;BME280;43090;52.604;13.318;2023-02-07T23:36:38;103730.31;;;-5.53;100.00
57234;BME280;43090;52.604;13.318;2023-02-07T23:39:04;103721.78;;;-5.70;100.00
57234;BME280;43090;52.604;13.318;2023-02-07T23:41:31;103718.94;;;-5.75;100.00
57234;BME280;43090;52.604;13.318;2023-02-07T23:43:57;103724.09;;;-5.76;100.00
57234;BME280;43090;52.604;13.318;2023-02-07T23:46:25;103720.88;;;-5.71;100.00
57234;BME280;43090;52.604;13.318;2023-02-07T23:48:52;103721.56;;;-5.75;100.00
57234;BME280;43090;52.604;13.318;2023-02-07T23:51:19;103734.53;;;-5.57;100.00
57234;BME280;43090;52.604;13.318;2023-02-07T23:53:45;103729.78;;;-5.65;100.00
57234;BME280;43090;52.604;13.318;2023-02-07T23:56:13;103724.84;;;-5.79;100.00
57234;BME280;43090;52.604;13.318;2023-02-07T23:58:40;103724.84;;;-5.79;100.00
